sensor_id;sensor_type;location;lat;lon;timestamp;P1;durP1;ratioP1;P2;durP2;ratioP2
2866;SDS011;1441;48.886;8.728;2023-07-28T00:01:30;6.13;;;2.40;;
2866;SDS011;1441;48.886;8.728;2023-07-28T00:03:56;2.47;;;2.27;;
2866;SDS011;1441;48.886;8.728;2023-07-28T00:06:22;5.70;;;2.03;;
2866;SDS011;1441;48.886;8.728;2023-07-28T00:08:48;2.73;;;1.97;;
2866;SDS011;1441;48.886;8.728;2023-07-28T00:11:14;3.20;;;2.70;;
2866;SDS011;1441;48.886;8.728;2023-07-28T00:13:41;1.57;;;1.47;;
2866;SDS011;1441;48.886;8.728;2023-07-28T00:16:08;2.87;;;1.83;;
2866;SDS011;1441;48.886;8.728;2023-07-28T00:18:34;5.13;;;2.10;;
2866;SDS011;1441;48.886;8.728;2023-07-28T00:21:00;2.77;;;1.97;;
2866;SDS011;1441;48.886;8.728;2023-07-28T00:23:25;2.73;;;2.50;;
2866;SDS011;1441;48.886;8.728;2023-07-28T00:25:52;2.33;;;2.10;;
2866;SDS011;1441;48.886;8.728;2023-07-28T00:28:17;2.63;;;1.87;;
2866;SDS011;1441;48.886;8.728;2023-07-28T00:30:43;2.30;;;2.03;;
2866;SDS011;1441;48.886;8.728;2023-07-28T00:33:08;5.60;;;2.20;;
2866;SDS011;1441;48.886;8.728;2023-07-28T00:35:34;2.90;;;2.57;;
2866;SDS011;1441;48.886;8.728;2023-07-28T00:37:59;3.80;;;2.43;;
2866;SDS011;1441;48.886;8.728;2023-07-28T00:40:25;2.50;;;1.97;;
2866;SDS011;1441;48.886;8.728;2023-07-28T00:42:51;2.40;;;2.20;;
2866;SDS011;1441;48.886;8.728;2023-07-28T00:45:16;4.23;;;2.40;;
2866;SDS011;1441;48.886;8.728;2023-07-28T00:47:42;2.10;;;2.00;;
2866;SDS011;1441;48.886;8.728;2023-07-28T00:50:08;3.63;;;2.00;;
2866;SDS011;1441;48.886;8.728;2023-07-28T00:52:35;4.80;;;1.80;;
2866;SDS011;1441;48.886;8.728;2023-07-28T00:55:01;2.57;;;2.37;;
2866;SDS011;1441;48.886;8.728;2023-07-28T00:57:27;2.43;;;2.20;;
2866;SDS011;1441;48.886;8.728;2023-07-28T00:59:53;3.13;;;1.97;;
2866;SDS011;1441;48.886;8.728;2023-07-28T01:02:19;2.00;;;1.90;;
2866;SDS011;1441;48.886;8.728;2023-07-28T01:04:45;2.47;;;2.27;;
2866;SDS011;1441;48.886;8.728;2023-07-28T01:07:14;2.27;;;2.10;;
2866;SDS011;1441;48.886;8.728;2023-07-28T01:10:02;2.27;;;2.17;;
2866;SDS011;1441;48.886;8.728;2023-07-28T01:12:30;1.90;;;1.80;;
2866;SDS011;1441;48.886;8.728;2023-07-28T01:14:56;3.90;;;1.63;;
2866;SDS011;1441;48.886;8.728;2023-07-28T01:17:22;2.10;;;1.90;;
2866;SDS011;1441;48.886;8.728;2023-07-28T01:19:51;1.60;;;1.50;;
2866;SDS011;1441;48.886;8.728;2023-07-28T01:24:55;2.47;;;2.23;;
2866;SDS011;1441;48.886;8.728;2023-07-28T01:27:32;7.50;;;2.10;;
2866;SDS011;1441;48.886;8.728;2023-07-28T01:29:59;5.23;;;2.17;;
2866;SDS011;1441;48.886;8.728;2023-07-28T01:32:25;5.93;;;2.40;;
2866;SDS011;1441;48.886;8.728;2023-07-28T01:34:51;2.63;;;2.43;;
2866;SDS011;1441;48.886;8.728;2023-07-28T01:37:16;4.03;;;2.27;;
2866;SDS011;1441;48.886;8.728;2023-07-28T01:39:42;2.87;;;1.93;;
2866;SDS011;1441;48.886;8.728;2023-07-28T01:42:07;6.57;;;2.80;;
2866;SDS011;1441;48.886;8.728;2023-07-28T01:44:33;2.67;;;1.90;;
2866;SDS011;1441;48.886;8.728;2023-07-28T01:46:59;2.43;;;2.27;;
2866;SDS011;1441;48.886;8.728;2023-07-28T01:49:24;2.70;;;2.50;;
2866;SDS011;1441;48.886;8.728;2023-07-28T01:51:50;3.03;;;2.40;;
2866;SDS011;1441;48.886;8.728;2023-07-28T01:54:15;7.10;;;2.57;;
2866;SDS011;1441;48.886;8.728;2023-07-28T01:56:41;6.27;;;2.60;;
2866;SDS011;1441;48.886;8.728;2023-07-28T01:59:06;2.17;;;2.00;;
2866;SDS011;1441;48.886;8.728;2023-07-28T02:01:32;2.80;;;2.13;;
2866;SDS011;1441;48.886;8.728;2023-07-28T02:03:57;4.23;;;2.33;;
2866;SDS011;1441;48.886;8.728;2023-07-28T02:06:23;2.63;;;1.93;;
2866;SDS011;1441;48.886;8.728;2023-07-28T02:08:49;2.00;;;1.90;;
2866;SDS011;1441;48.886;8.728;2023-07-28T02:11:14;6.20;;;2.00;;
2866;SDS011;1441;48.886;8.728;2023-07-28T02:13:40;2.00;;;1.90;;
2866;SDS011;1441;48.886;8.728;2023-07-28T02:16:06;2.70;;;2.50;;
2866;SDS011;1441;48.886;8.728;2023-07-28T02:18:31;4.77;;;2.53;;
2866;SDS011;1441;48.886;8.728;2023-07-28T02:20:57;2.73;;;2.30;;
2866;SDS011;1441;48.886;8.728;2023-07-28T02:23:22;2.13;;;1.97;;
2866;SDS011;1441;48.886;8.728;2023-07-28T02:25:48;2.43;;;2.30;;
2866;SDS011;1441;48.886;8.728;2023-07-28T02:28:13;4.63;;;2.13;;
2866;SDS011;1441;48.886;8.728;2023-07-28T02:30:39;2.60;;;2.10;;
2866;SDS011;1441;48.886;8.728;2023-07-28T02:33:05;5.63;;;2.40;;
2866;SDS011;1441;48.886;8.728;2023-07-28T02:35:30;2.70;;;2.50;;
2866;SDS011;1441;48.886;8.728;2023-07-28T02:37:57;3.50;;;2.30;;
2866;SDS011;1441;48.886;8.728;2023-07-28T02:40:23;3.00;;;2.70;;
2866;SDS011;1441;48.886;8.728;2023-07-28T02:42:48;2.97;;;2.47;;
2866;SDS011;1441;48.886;8.728;2023-07-28T02:45:14;2.43;;;1.70;;
2866;SDS011;1441;48.886;8.728;2023-07-28T02:47:40;2.43;;;2.23;;
2866;SDS011;1441;48.886;8.728;2023-07-28T02:50:05;2.40;;;2.23;;
2866;SDS011;1441;48.886;8.728;2023-07-28T02:52:31;3.80;;;2.40;;
2866;SDS011;1441;48.886;8.728;2023-07-28T02:54:57;2.27;;;2.00;;
2866;SDS011;1441;48.886;8.728;2023-07-28T02:57:22;4.70;;;2.53;;
2866;SDS011;1441;48.886;8.728;2023-07-28T02:59:48;4.87;;;2.40;;
2866;SDS011;1441;48.886;8.728;2023-07-28T03:02:13;4.30;;;3.10;;
2866;SDS011;1441;48.886;8.728;2023-07-28T03:04:39;6.50;;;3.00;;
2866;SDS011;1441;48.886;8.728;2023-07-28T03:07:04;3.50;;;3.20;;
2866;SDS011;1441;48.886;8.728;2023-07-28T03:09:30;3.10;;;2.90;;
2866;SDS011;1441;48.886;8.728;2023-07-28T03:11:55;3.60;;;2.60;;
2866;SDS011;1441;48.886;8.728;2023-07-28T03:14:21;4.30;;;2.87;;
2866;SDS011;1441;48.886;8.728;2023-07-28T03:16:47;4.43;;;2.00;;
2866;SDS011;1441;48.886;8.728;2023-07-28T03:19:12;2.47;;;2.27;;
2866;SDS011;1441;48.886;8.728;2023-07-28T03:21:38;2.43;;;2.23;;
2866;SDS011;1441;48.886;8.728;2023-07-28T03:24:04;5.40;;;3.47;;
2866;SDS011;1441;48.886;8.728;2023-07-28T03:26:30;4.20;;;2.90;;
2866;SDS011;1441;48.886;8.728;2023-07-28T03:28:56;2.80;;;2.57;;
2866;SDS011;1441;48.886;8.728;2023-07-28T03:31:21;3.93;;;2.87;;
2866;SDS011;1441;48.886;8.728;2023-07-28T03:33:47;7.90;;;2.63;;
2866;SDS011;1441;48.886;8.728;2023-07-28T03:36:13;8.13;;;2.50;;
2866;SDS011;1441;48.886;8.728;2023-07-28T03:38:38;2.70;;;2.50;;
2866;SDS011;1441;48.886;8.728;2023-07-28T03:41:04;3.30;;;2.60;;
2866;SDS011;1441;48.886;8.728;2023-07-28T03:43:31;3.90;;;2.70;;
2866;SDS011;1441;48.886;8.728;2023-07-28T03:45:56;3.63;;;3.33;;
2866;SDS011;1441;48.886;8.728;2023-07-28T03:48:22;3.73;;;3.43;;
2866;SDS011;1441;48.886;8.728;2023-07-28T03:50:48;4.57;;;3.23;;
2866;SDS011;1441;48.886;8.728;2023-07-28T03:53:13;5.57;;;3.10;;
2866;SDS011;1441;48.886;8.728;2023-07-28T03:55:39;2.90;;;2.70;;
2866;SDS011;1441;48.886;8.728;2023-07-28T03:58:04;5.00;;;2.60;;
2866;SDS011;1441;48.886;8.728;2023-07-28T04:00:30;4.30;;;2.50;;
2866;SDS011;1441;48.886;8.728;2023-07-28T04:02:55;4.27;;;2.83;;
2866;SDS011;1441;48.886;8.728;2023-07-28T04:05:21;5.50;;;2.90;;
2866;SDS011;1441;48.886;8.728;2023-07-28T04:07:47;2.80;;;2.57;;
2866;SDS011;1441;48.886;8.728;2023-07-28T04:10:12;5.23;;;3.33;;
2866;SDS011;1441;48.886;8.728;2023-07-28T04:12:38;2.33;;;2.23;;
2866;SDS011;1441;48.886;8.728;2023-07-28T04:15:03;4.93;;;3.57;;
2866;SDS011;1441;48.886;8.728;2023-07-28T04:17:29;3.73;;;3.30;;
2866;SDS011;1441;48.886;8.728;2023-07-28T04:19:55;4.20;;;2.80;;
2866;SDS011;1441;48.886;8.728;2023-07-28T04:22:20;3.10;;;2.83;;
2866;SDS011;1441;48.886;8.728;2023-07-28T04:24:47;2.70;;;2.50;;
2866;SDS011;1441;48.886;8.728;2023-07-28T04:27:13;2.50;;;2.30;;
2866;SDS011;1441;48.886;8.728;2023-07-28T04:29:39;5.57;;;2.80;;
2866;SDS011;1441;48.886;8.728;2023-07-28T04:32:04;4.10;;;2.50;;
2866;SDS011;1441;48.886;8.728;2023-07-28T04:34:32;3.87;;;2.57;;
2866;SDS011;1441;48.886;8.728;2023-07-28T04:36:58;3.20;;;3.00;;
2866;SDS011;1441;48.886;8.728;2023-07-28T04:39:24;7.73;;;2.93;;
2866;SDS011;1441;48.886;8.728;2023-07-28T04:41:49;3.17;;;2.87;;
2866;SDS011;1441;48.886;8.728;2023-07-28T04:44:15;2.87;;;2.57;;
2866;SDS011;1441;48.886;8.728;2023-07-28T04:46:41;5.40;;;2.50;;
2866;SDS011;1441;48.886;8.728;2023-07-28T04:49:06;3.27;;;3.07;;
2866;SDS011;1441;48.886;8.728;2023-07-28T04:51:32;3.00;;;2.80;;
2866;SDS011;1441;48.886;8.728;2023-07-28T04:53:57;5.37;;;3.27;;
2866;SDS011;1441;48.886;8.728;2023-07-28T04:56:23;3.40;;;3.20;;
2866;SDS011;1441;48.886;8.728;2023-07-28T04:58:48;4.03;;;3.00;;
2866;SDS011;1441;48.886;8.728;2023-07-28T05:01:14;9.00;;;3.23;;
2866;SDS011;1441;48.886;8.728;2023-07-28T05:03:39;3.80;;;3.03;;
2866;SDS011;1441;48.886;8.728;2023-07-28T05:06:05;8.10;;;3.20;;
2866;SDS011;1441;48.886;8.728;2023-07-28T05:08:30;2.73;;;2.50;;
2866;SDS011;1441;48.886;8.728;2023-07-28T05:10:56;3.87;;;3.30;;
2866;SDS011;1441;48.886;8.728;2023-07-28T05:13:21;5.90;;;3.47;;
2866;SDS011;1441;48.886;8.728;2023-07-28T05:15:47;5.00;;;3.00;;
2866;SDS011;1441;48.886;8.728;2023-07-28T05:18:12;2.80;;;2.60;;
2866;SDS011;1441;48.886;8.728;2023-07-28T05:20:38;3.13;;;2.83;;
2866;SDS011;1441;48.886;8.728;2023-07-28T05:23:04;3.90;;;2.97;;
2866;SDS011;1441;48.886;8.728;2023-07-28T05:25:29;3.90;;;2.93;;
2866;SDS011;1441;48.886;8.728;2023-07-28T05:27:55;2.80;;;2.47;;
2866;SDS011;1441;48.886;8.728;2023-07-28T05:30:21;3.33;;;3.00;;
2866;SDS011;1441;48.886;8.728;2023-07-28T05:32:47;4.73;;;2.60;;
2866;SDS011;1441;48.886;8.728;2023-07-28T05:35:13;5.80;;;2.90;;
2866;SDS011;1441;48.886;8.728;2023-07-28T05:37:39;2.80;;;2.60;;
2866;SDS011;1441;48.886;8.728;2023-07-28T05:40:05;2.53;;;2.43;;
2866;SDS011;1441;48.886;8.728;2023-07-28T05:42:31;4.80;;;2.50;;
2866;SDS011;1441;48.886;8.728;2023-07-28T05:44:56;4.17;;;2.53;;
2866;SDS011;1441;48.886;8.728;2023-07-28T05:47:23;2.50;;;2.30;;
2866;SDS011;1441;48.886;8.728;2023-07-28T05:49:49;2.70;;;2.50;;
2866;SDS011;1441;48.886;8.728;2023-07-28T05:52:16;3.07;;;2.87;;
2866;SDS011;1441;48.886;8.728;2023-07-28T05:54:41;2.13;;;2.03;;
2866;SDS011;1441;48.886;8.728;2023-07-28T05:57:07;2.00;;;1.63;;
2866;SDS011;1441;48.886;8.728;2023-07-28T05:59:32;2.50;;;2.10;;
2866;SDS011;1441;48.886;8.728;2023-07-28T06:01:58;3.17;;;2.20;;
2866;SDS011;1441;48.886;8.728;2023-07-28T06:04:23;2.30;;;2.20;;
2866;SDS011;1441;48.886;8.728;2023-07-28T06:06:49;2.20;;;2.10;;
2866;SDS011;1441;48.886;8.728;2023-07-28T06:09:14;2.40;;;1.83;;
2866;SDS011;1441;48.886;8.728;2023-07-28T06:11:40;1.90;;;1.80;;
2866;SDS011;1441;48.886;8.728;2023-07-28T06:14:06;5.70;;;2.27;;
2866;SDS011;1441;48.886;8.728;2023-07-28T06:16:31;4.77;;;2.23;;
2866;SDS011;1441;48.886;8.728;2023-07-28T06:18:57;2.00;;;1.90;;
2866;SDS011;1441;48.886;8.728;2023-07-28T06:21:22;1.90;;;1.80;;
2866;SDS011;1441;48.886;8.728;2023-07-28T06:23:48;2.33;;;1.57;;
2866;SDS011;1441;48.886;8.728;2023-07-28T06:26:13;1.83;;;1.73;;
2866;SDS011;1441;48.886;8.728;2023-07-28T06:28:39;1.60;;;1.50;;
2866;SDS011;1441;48.886;8.728;2023-07-28T06:31:05;1.53;;;1.40;;
2866;SDS011;1441;48.886;8.728;2023-07-28T06:33:30;1.47;;;1.37;;
2866;SDS011;1441;48.886;8.728;2023-07-28T06:35:57;2.10;;;1.27;;
2866;SDS011;1441;48.886;8.728;2023-07-28T06:38:22;1.50;;;1.00;;
2866;SDS011;1441;48.886;8.728;2023-07-28T06:40:48;0.93;;;0.93;;
2866;SDS011;1441;48.886;8.728;2023-07-28T06:43:13;1.10;;;1.10;;
2866;SDS011;1441;48.886;8.728;2023-07-28T06:45:39;1.03;;;0.93;;
2866;SDS011;1441;48.886;8.728;2023-07-28T06:48:04;2.33;;;1.20;;
2866;SDS011;1441;48.886;8.728;2023-07-28T06:50:30;0.80;;;0.80;;
2866;SDS011;1441;48.886;8.728;2023-07-28T06:52:57;3.87;;;1.10;;
2866;SDS011;1441;48.886;8.728;2023-07-28T06:55:23;1.20;;;1.10;;
2866;SDS011;1441;48.886;8.728;2023-07-28T06:57:48;0.90;;;0.90;;
2866;SDS011;1441;48.886;8.728;2023-07-28T07:00:14;1.30;;;1.30;;
2866;SDS011;1441;48.886;8.728;2023-07-28T07:02:40;0.90;;;0.90;;
2866;SDS011;1441;48.886;8.728;2023-07-28T07:05:06;1.63;;;1.53;;
2866;SDS011;1441;48.886;8.728;2023-07-28T07:07:32;1.20;;;1.13;;
2866;SDS011;1441;48.886;8.728;2023-07-28T07:09:58;0.93;;;0.93;;
2866;SDS011;1441;48.886;8.728;2023-07-28T07:12:23;6.00;;;1.30;;
2866;SDS011;1441;48.886;8.728;2023-07-28T07:14:49;0.90;;;0.90;;
2866;SDS011;1441;48.886;8.728;2023-07-28T07:17:14;1.10;;;1.10;;
2866;SDS011;1441;48.886;8.728;2023-07-28T07:19:40;0.87;;;0.87;;
2866;SDS011;1441;48.886;8.728;2023-07-28T07:22:05;1.77;;;1.10;;
2866;SDS011;1441;48.886;8.728;2023-07-28T07:24:31;1.00;;;0.90;;
2866;SDS011;1441;48.886;8.728;2023-07-28T07:26:57;1.00;;;1.00;;
2866;SDS011;1441;48.886;8.728;2023-07-28T07:29:23;0.90;;;0.90;;
2866;SDS011;1441;48.886;8.728;2023-07-28T07:31:49;1.10;;;1.10;;
2866;SDS011;1441;48.886;8.728;2023-07-28T07:34:19;1.23;;;0.87;;
2866;SDS011;1441;48.886;8.728;2023-07-28T07:36:45;1.87;;;0.93;;
2866;SDS011;1441;48.886;8.728;2023-07-28T07:39:11;1.17;;;1.00;;
2866;SDS011;1441;48.886;8.728;2023-07-28T07:41:36;1.03;;;1.03;;
2866;SDS011;1441;48.886;8.728;2023-07-28T07:44:02;1.17;;;1.07;;
2866;SDS011;1441;48.886;8.728;2023-07-28T07:46:27;1.20;;;1.20;;
2866;SDS011;1441;48.886;8.728;2023-07-28T07:48:53;1.40;;;1.30;;
2866;SDS011;1441;48.886;8.728;2023-07-28T07:51:19;1.30;;;1.17;;
2866;SDS011;1441;48.886;8.728;2023-07-28T07:53:44;1.20;;;1.17;;
2866;SDS011;1441;48.886;8.728;2023-07-28T07:56:10;2.20;;;1.57;;
2866;SDS011;1441;48.886;8.728;2023-07-28T07:58:36;1.50;;;1.17;;
2866;SDS011;1441;48.886;8.728;2023-07-28T08:01:02;1.37;;;1.37;;
2866;SDS011;1441;48.886;8.728;2023-07-28T08:03:29;1.10;;;1.10;;
2866;SDS011;1441;48.886;8.728;2023-07-28T08:05:55;1.43;;;1.43;;
2866;SDS011;1441;48.886;8.728;2023-07-28T08:08:21;1.73;;;1.23;;
2866;SDS011;1441;48.886;8.728;2023-07-28T08:10:47;1.37;;;1.27;;
2866;SDS011;1441;48.886;8.728;2023-07-28T08:13:13;3.23;;;1.50;;
2866;SDS011;1441;48.886;8.728;2023-07-28T08:15:39;1.67;;;1.57;;
2866;SDS011;1441;48.886;8.728;2023-07-28T08:18:07;1.53;;;1.20;;
2866;SDS011;1441;48.886;8.728;2023-07-28T08:20:33;1.10;;;1.10;;
2866;SDS011;1441;48.886;8.728;2023-07-28T08:22:58;0.90;;;0.90;;
2866;SDS011;1441;48.886;8.728;2023-07-28T08:25:24;2.53;;;1.10;;
2866;SDS011;1441;48.886;8.728;2023-07-28T08:27:49;1.03;;;1.03;;
2866;SDS011;1441;48.886;8.728;2023-07-28T08:30:15;0.93;;;0.93;;
2866;SDS011;1441;48.886;8.728;2023-07-28T08:32:41;1.00;;;1.00;;
2866;SDS011;1441;48.886;8.728;2023-07-28T08:35:07;2.20;;;1.23;;
2866;SDS011;1441;48.886;8.728;2023-07-28T08:37:33;1.50;;;1.40;;
2866;SDS011;1441;48.886;8.728;2023-07-28T08:39:59;1.73;;;1.63;;
2866;SDS011;1441;48.886;8.728;2023-07-28T08:42:25;2.50;;;1.10;;
2866;SDS011;1441;48.886;8.728;2023-07-28T08:44:50;1.57;;;1.47;;
2866;SDS011;1441;48.886;8.728;2023-07-28T08:47:17;1.40;;;1.30;;
2866;SDS011;1441;48.886;8.728;2023-07-28T08:49:43;1.70;;;1.37;;
2866;SDS011;1441;48.886;8.728;2023-07-28T08:52:09;1.57;;;1.40;;
2866;SDS011;1441;48.886;8.728;2023-07-28T08:54:35;1.87;;;1.10;;
2866;SDS011;1441;48.886;8.728;2023-07-28T08:57:01;1.80;;;1.70;;
2866;SDS011;1441;48.886;8.728;2023-07-28T08:59:27;2.83;;;1.80;;
2866;SDS011;1441;48.886;8.728;2023-07-28T09:01:54;1.70;;;1.60;;
2866;SDS011;1441;48.886;8.728;2023-07-28T09:04:21;3.67;;;1.50;;
2866;SDS011;1441;48.886;8.728;2023-07-28T09:06:48;1.83;;;1.73;;
2866;SDS011;1441;48.886;8.728;2023-07-28T09:09:14;2.17;;;1.33;;
2866;SDS011;1441;48.886;8.728;2023-07-28T09:11:50;1.60;;;1.37;;
2866;SDS011;1441;48.886;8.728;2023-07-28T09:14:18;1.50;;;1.40;;
2866;SDS011;1441;48.886;8.728;2023-07-28T09:16:45;1.97;;;1.87;;
2866;SDS011;1441;48.886;8.728;2023-07-28T09:19:11;2.00;;;1.20;;
2866;SDS011;1441;48.886;8.728;2023-07-28T09:21:38;1.80;;;1.70;;
2866;SDS011;1441;48.886;8.728;2023-07-28T09:24:07;1.90;;;1.60;;
2866;SDS011;1441;48.886;8.728;2023-07-28T09:26:36;2.03;;;1.93;;
2866;SDS011;1441;48.886;8.728;2023-07-28T09:29:12;2.57;;;1.60;;
2866;SDS011;1441;48.886;8.728;2023-07-28T09:31:46;1.83;;;1.37;;
2866;SDS011;1441;48.886;8.728;2023-07-28T09:34:13;1.50;;;1.40;;
2866;SDS011;1441;48.886;8.728;2023-07-28T09:36:49;1.50;;;1.40;;
2866;SDS011;1441;48.886;8.728;2023-07-28T09:39:14;1.60;;;1.50;;
2866;SDS011;1441;48.886;8.728;2023-07-28T09:41:41;2.03;;;1.73;;
2866;SDS011;1441;48.886;8.728;2023-07-28T09:44:09;3.13;;;1.30;;
2866;SDS011;1441;48.886;8.728;2023-07-28T09:46:35;1.13;;;1.03;;
2866;SDS011;1441;48.886;8.728;2023-07-28T09:49:18;1.97;;;1.30;;
2866;SDS011;1441;48.886;8.728;2023-07-28T09:51:58;1.87;;;1.27;;
2866;SDS011;1441;48.886;8.728;2023-07-28T09:54:29;5.43;;;0.97;;
2866;SDS011;1441;48.886;8.728;2023-07-28T09:56:56;0.97;;;0.97;;
2866;SDS011;1441;48.886;8.728;2023-07-28T09:59:24;3.73;;;1.67;;
2866;SDS011;1441;48.886;8.728;2023-07-28T10:01:53;0.90;;;0.90;;
2866;SDS011;1441;48.886;8.728;2023-07-28T10:04:20;0.90;;;0.83;;
2866;SDS011;1441;48.886;8.728;2023-07-28T10:06:46;1.63;;;1.20;;
2866;SDS011;1441;48.886;8.728;2023-07-28T10:09:13;1.60;;;1.50;;
2866;SDS011;1441;48.886;8.728;2023-07-28T10:11:41;1.43;;;1.00;;
2866;SDS011;1441;48.886;8.728;2023-07-28T10:14:07;2.90;;;1.70;;
2866;SDS011;1441;48.886;8.728;2023-07-28T10:16:38;1.47;;;1.10;;
2866;SDS011;1441;48.886;8.728;2023-07-28T10:19:04;4.40;;;1.30;;
2866;SDS011;1441;48.886;8.728;2023-07-28T10:21:30;1.60;;;1.50;;
2866;SDS011;1441;48.886;8.728;2023-07-28T10:23:59;1.30;;;1.20;;
2866;SDS011;1441;48.886;8.728;2023-07-28T10:26:34;1.40;;;1.30;;
2866;SDS011;1441;48.886;8.728;2023-07-28T10:29:09;1.47;;;1.47;;
2866;SDS011;1441;48.886;8.728;2023-07-28T10:31:36;1.17;;;1.10;;
2866;SDS011;1441;48.886;8.728;2023-07-28T10:34:02;1.33;;;1.23;;
2866;SDS011;1441;48.886;8.728;2023-07-28T10:41:40;1.53;;;1.37;;
2866;SDS011;1441;48.886;8.728;2023-07-28T10:44:24;1.40;;;1.30;;
2866;SDS011;1441;48.886;8.728;2023-07-28T10:46:50;2.03;;;1.67;;
2866;SDS011;1441;48.886;8.728;2023-07-28T10:49:16;1.90;;;1.53;;
2866;SDS011;1441;48.886;8.728;2023-07-28T10:51:42;1.97;;;1.87;;
2866;SDS011;1441;48.886;8.728;2023-07-28T10:54:07;1.40;;;1.30;;
2866;SDS011;1441;48.886;8.728;2023-07-28T10:56:33;1.27;;;1.17;;
2866;SDS011;1441;48.886;8.728;2023-07-28T10:58:59;1.70;;;1.60;;
2866;SDS011;1441;48.886;8.728;2023-07-28T11:01:39;1.53;;;1.43;;
2866;SDS011;1441;48.886;8.728;2023-07-28T11:04:24;1.30;;;1.20;;
2866;SDS011;1441;48.886;8.728;2023-07-28T11:06:50;1.90;;;1.80;;
2866;SDS011;1441;48.886;8.728;2023-07-28T11:09:17;1.40;;;1.30;;
2866;SDS011;1441;48.886;8.728;2023-07-28T11:11:43;1.57;;;1.33;;
2866;SDS011;1441;48.886;8.728;2023-07-28T11:14:10;1.13;;;1.13;;
2866;SDS011;1441;48.886;8.728;2023-07-28T11:16:37;1.40;;;1.30;;
2866;SDS011;1441;48.886;8.728;2023-07-28T11:19:07;1.60;;;1.50;;
2866;SDS011;1441;48.886;8.728;2023-07-28T11:21:39;1.90;;;1.13;;
2866;SDS011;1441;48.886;8.728;2023-07-28T11:24:09;2.83;;;1.43;;
2866;SDS011;1441;48.886;8.728;2023-07-28T11:26:36;1.50;;;1.50;;
2866;SDS011;1441;48.886;8.728;2023-07-28T11:29:03;2.23;;;1.83;;
2866;SDS011;1441;48.886;8.728;2023-07-28T11:31:29;2.50;;;1.90;;
2866;SDS011;1441;48.886;8.728;2023-07-28T11:33:55;1.33;;;1.33;;
2866;SDS011;1441;48.886;8.728;2023-07-28T11:36:24;3.60;;;1.83;;
2866;SDS011;1441;48.886;8.728;2023-07-28T11:38:53;1.93;;;1.80;;
2866;SDS011;1441;48.886;8.728;2023-07-28T11:41:22;1.80;;;1.70;;
2866;SDS011;1441;48.886;8.728;2023-07-28T11:43:48;2.50;;;1.57;;
2866;SDS011;1441;48.886;8.728;2023-07-28T11:49:15;3.53;;;1.80;;
2866;SDS011;1441;48.886;8.728;2023-07-28T11:51:44;2.30;;;2.20;;
2866;SDS011;1441;48.886;8.728;2023-07-28T11:54:12;1.67;;;1.57;;
2866;SDS011;1441;48.886;8.728;2023-07-28T11:56:45;1.83;;;1.73;;
2866;SDS011;1441;48.886;8.728;2023-07-28T11:59:12;3.50;;;2.03;;
2866;SDS011;1441;48.886;8.728;2023-07-28T12:04:30;2.90;;;2.00;;
2866;SDS011;1441;48.886;8.728;2023-07-28T12:09:46;2.00;;;1.90;;
2866;SDS011;1441;48.886;8.728;2023-07-28T12:12:14;2.63;;;2.40;;
2866;SDS011;1441;48.886;8.728;2023-07-28T12:14:40;2.90;;;2.13;;
2866;SDS011;1441;48.886;8.728;2023-07-28T12:17:12;2.60;;;2.30;;
2866;SDS011;1441;48.886;8.728;2023-07-28T12:22:42;2.57;;;2.37;;
2866;SDS011;1441;48.886;8.728;2023-07-28T12:25:09;2.93;;;2.40;;
2866;SDS011;1441;48.886;8.728;2023-07-28T12:27:35;3.00;;;2.40;;
2866;SDS011;1441;48.886;8.728;2023-07-28T12:30:01;5.90;;;2.93;;
2866;SDS011;1441;48.886;8.728;2023-07-28T12:32:27;2.97;;;2.60;;
2866;SDS011;1441;48.886;8.728;2023-07-28T12:34:53;3.67;;;2.60;;
2866;SDS011;1441;48.886;8.728;2023-07-28T12:37:18;5.33;;;3.10;;
2866;SDS011;1441;48.886;8.728;2023-07-28T12:39:45;2.60;;;2.40;;
2866;SDS011;1441;48.886;8.728;2023-07-28T12:42:11;2.53;;;2.33;;
2866;SDS011;1441;48.886;8.728;2023-07-28T12:44:37;2.70;;;2.50;;
2866;SDS011;1441;48.886;8.728;2023-07-28T12:47:04;3.63;;;2.90;;
2866;SDS011;1441;48.886;8.728;2023-07-28T12:49:30;3.10;;;2.80;;
2866;SDS011;1441;48.886;8.728;2023-07-28T12:51:57;2.47;;;2.27;;
2866;SDS011;1441;48.886;8.728;2023-07-28T12:54:23;7.73;;;2.83;;
2866;SDS011;1441;48.886;8.728;2023-07-28T12:56:49;3.67;;;2.77;;
2866;SDS011;1441;48.886;8.728;2023-07-28T12:59:16;3.43;;;3.13;;
2866;SDS011;1441;48.886;8.728;2023-07-28T13:01:41;2.73;;;2.43;;
2866;SDS011;1441;48.886;8.728;2023-07-28T13:04:07;5.07;;;2.10;;
2866;SDS011;1441;48.886;8.728;2023-07-28T13:06:33;3.93;;;2.77;;
2866;SDS011;1441;48.886;8.728;2023-07-28T13:08:58;2.37;;;2.27;;
2866;SDS011;1441;48.886;8.728;2023-07-28T13:11:24;4.10;;;2.60;;
2866;SDS011;1441;48.886;8.728;2023-07-28T13:13:49;2.57;;;2.47;;
2866;SDS011;1441;48.886;8.728;2023-07-28T13:16:15;5.70;;;2.97;;
2866;SDS011;1441;48.886;8.728;2023-07-28T13:18:44;4.47;;;3.37;;
2866;SDS011;1441;48.886;8.728;2023-07-28T13:21:10;4.57;;;3.17;;
2866;SDS011;1441;48.886;8.728;2023-07-28T13:23:36;9.87;;;2.80;;
2866;SDS011;1441;48.886;8.728;2023-07-28T13:26:05;3.83;;;2.90;;
2866;SDS011;1441;48.886;8.728;2023-07-28T13:28:31;2.80;;;2.60;;
2866;SDS011;1441;48.886;8.728;2023-07-28T13:30:57;3.43;;;2.97;;
2866;SDS011;1441;48.886;8.728;2023-07-28T13:33:22;3.83;;;3.53;;
2866;SDS011;1441;48.886;8.728;2023-07-28T13:35:48;3.13;;;2.93;;
2866;SDS011;1441;48.886;8.728;2023-07-28T13:38:14;5.80;;;3.57;;
2866;SDS011;1441;48.886;8.728;2023-07-28T13:40:39;3.67;;;3.00;;
2866;SDS011;1441;48.886;8.728;2023-07-28T13:43:05;3.30;;;3.03;;
2866;SDS011;1441;48.886;8.728;2023-07-28T13:45:31;2.67;;;2.23;;
2866;SDS011;1441;48.886;8.728;2023-07-28T13:47:56;6.03;;;3.13;;
2866;SDS011;1441;48.886;8.728;2023-07-28T13:50:22;3.40;;;3.13;;
2866;SDS011;1441;48.886;8.728;2023-07-28T13:52:48;5.57;;;2.70;;
2866;SDS011;1441;48.886;8.728;2023-07-28T13:55:14;3.73;;;2.70;;
2866;SDS011;1441;48.886;8.728;2023-07-28T13:57:39;3.33;;;3.03;;
2866;SDS011;1441;48.886;8.728;2023-07-28T14:00:05;4.83;;;3.07;;
2866;SDS011;1441;48.886;8.728;2023-07-28T14:02:37;4.00;;;2.97;;
2866;SDS011;1441;48.886;8.728;2023-07-28T14:05:04;3.17;;;2.70;;
2866;SDS011;1441;48.886;8.728;2023-07-28T14:07:30;4.23;;;2.87;;
2866;SDS011;1441;48.886;8.728;2023-07-28T14:09:56;3.40;;;3.20;;
2866;SDS011;1441;48.886;8.728;2023-07-28T14:12:21;3.80;;;2.90;;
2866;SDS011;1441;48.886;8.728;2023-07-28T14:14:47;3.30;;;3.07;;
2866;SDS011;1441;48.886;8.728;2023-07-28T14:17:14;2.83;;;2.63;;
2866;SDS011;1441;48.886;8.728;2023-07-28T14:19:40;3.73;;;3.20;;
2866;SDS011;1441;48.886;8.728;2023-07-28T14:22:06;3.50;;;3.20;;
2866;SDS011;1441;48.886;8.728;2023-07-28T14:24:31;3.83;;;3.43;;
2866;SDS011;1441;48.886;8.728;2023-07-28T14:26:57;5.60;;;3.70;;
2866;SDS011;1441;48.886;8.728;2023-07-28T14:29:22;4.00;;;2.90;;
2866;SDS011;1441;48.886;8.728;2023-07-28T14:31:48;4.93;;;3.50;;
2866;SDS011;1441;48.886;8.728;2023-07-28T14:34:14;4.10;;;3.70;;
2866;SDS011;1441;48.886;8.728;2023-07-28T14:36:39;3.20;;;3.00;;
2866;SDS011;1441;48.886;8.728;2023-07-28T14:39:05;21.57;;;3.73;;
2866;SDS011;1441;48.886;8.728;2023-07-28T14:41:31;10.03;;;3.57;;
2866;SDS011;1441;48.886;8.728;2023-07-28T14:43:56;7.60;;;3.23;;
2866;SDS011;1441;48.886;8.728;2023-07-28T14:46:22;2.97;;;2.77;;
2866;SDS011;1441;48.886;8.728;2023-07-28T14:48:49;3.50;;;3.30;;
2866;SDS011;1441;48.886;8.728;2023-07-28T14:51:16;3.73;;;3.37;;
2866;SDS011;1441;48.886;8.728;2023-07-28T14:53:41;6.13;;;3.10;;
2866;SDS011;1441;48.886;8.728;2023-07-28T14:56:07;7.23;;;3.17;;
2866;SDS011;1441;48.886;8.728;2023-07-28T14:58:33;3.37;;;3.07;;
2866;SDS011;1441;48.886;8.728;2023-07-28T15:00:59;3.63;;;2.90;;
2866;SDS011;1441;48.886;8.728;2023-07-28T15:03:28;3.07;;;2.77;;
2866;SDS011;1441;48.886;8.728;2023-07-28T15:05:55;12.57;;;3.33;;
2866;SDS011;1441;48.886;8.728;2023-07-28T15:08:21;4.43;;;2.93;;
2866;SDS011;1441;48.886;8.728;2023-07-28T15:10:47;7.33;;;2.90;;
2866;SDS011;1441;48.886;8.728;2023-07-28T15:13:12;10.57;;;2.90;;
2866;SDS011;1441;48.886;8.728;2023-07-28T15:15:38;3.00;;;2.50;;
2866;SDS011;1441;48.886;8.728;2023-07-28T15:18:04;6.77;;;2.60;;
2866;SDS011;1441;48.886;8.728;2023-07-28T15:20:29;5.80;;;2.53;;
2866;SDS011;1441;48.886;8.728;2023-07-28T15:22:55;6.57;;;2.80;;
2866;SDS011;1441;48.886;8.728;2023-07-28T15:25:20;12.03;;;2.77;;
2866;SDS011;1441;48.886;8.728;2023-07-28T15:27:46;2.80;;;2.60;;
2866;SDS011;1441;48.886;8.728;2023-07-28T15:30:12;6.50;;;2.80;;